createdAt,value
2018-04-29T00:00:23.525Z,9.23
2018-04-29T00:02:52.594Z,8.67
2018-04-29T00:05:21.670Z,8.50
2018-04-29T00:07:50.743Z,8.90
2018-04-29T00:10:19.816Z,8.60
2018-04-29T00:12:49.628Z,8.93
2018-04-29T00:15:19.470Z,8.43
2018-04-29T00:17:48.537Z,8.53
2018-04-29T00:20:18.353Z,9.30
2018-04-29T00:22:48.197Z,8.80
2018-04-29T00:25:17.257Z,8.40
2018-04-29T00:27:47.074Z,8.83
2018-04-29T00:30:16.897Z,8.60
2018-04-29T00:32:45.930Z,8.07
2018-04-29T00:35:14.998Z,8.43
2018-04-29T00:37:44.048Z,8.90
2018-04-29T00:40:13.085Z,9.87
2018-04-29T00:42:42.157Z,8.83
2018-04-29T00:45:11.969Z,8.77
2018-04-29T00:47:41.799Z,8.87
2018-04-29T00:50:10.854Z,8.63
2018-04-29T00:52:39.921Z,8.60
2018-04-29T00:55:08.958Z,8.57
2018-04-29T00:57:38.796Z,8.53
2018-04-29T01:00:07.835Z,7.73
2018-04-29T01:02:36.917Z,8.77
2018-04-29T01:08:10.004Z,8.53
2018-04-29T01:10:39.048Z,8.90
2018-04-29T01:13:08.092Z,8.00
2018-04-29T01:15:37.158Z,8.50
2018-04-29T01:18:06.228Z,8.20
2018-04-29T01:20:35.283Z,8.80
2018-04-29T01:23:04.323Z,8.77
2018-04-29T01:25:33.381Z,8.70
2018-04-29T01:28:02.449Z,8.53
2018-04-29T01:30:31.492Z,9.17
2018-04-29T01:33:00.566Z,8.80
2018-04-29T01:35:29.639Z,8.30
2018-04-29T01:37:58.672Z,8.10
2018-04-29T01:40:27.754Z,8.10
2018-04-29T01:42:56.801Z,8.20
2018-04-29T01:45:26.634Z,8.07
2018-04-29T01:47:55.712Z,8.47
2018-04-29T01:50:25.504Z,8.40
2018-04-29T01:52:55.420Z,8.17
2018-04-29T01:55:24.464Z,8.53
2018-04-29T01:57:53.501Z,8.53
2018-04-29T02:00:23.364Z,8.87
2018-04-29T02:02:52.417Z,7.90
2018-04-29T02:05:22.227Z,8.07
2018-04-29T02:07:52.065Z,9.03
2018-04-29T02:10:21.132Z,8.70
2018-04-29T02:12:50.967Z,8.83
2018-04-29T02:15:20.033Z,8.40
2018-04-29T02:17:49.116Z,8.63
2018-04-29T02:20:18.172Z,8.73
2018-04-29T02:22:47.239Z,8.67
2018-04-29T02:25:16.274Z,7.90
2018-04-29T02:27:45.357Z,8.70
2018-04-29T02:30:14.397Z,8.80
2018-04-29T02:32:43.432Z,8.03
2018-04-29T02:35:12.500Z,8.23
2018-04-29T02:37:42.313Z,8.60
2018-04-29T02:40:12.174Z,9.60
2018-04-29T02:42:41.223Z,8.73
2018-04-29T02:45:11.057Z,8.40
2018-04-29T02:47:40.129Z,9.03
2018-04-29T02:50:09.938Z,8.90
2018-04-29T02:52:39.769Z,8.90
2018-04-29T02:55:08.841Z,8.83
2018-04-29T02:57:38.676Z,8.67
2018-04-29T03:00:07.709Z,8.30
2018-04-29T03:02:36.785Z,8.77
2018-04-29T03:05:05.866Z,8.97
2018-04-29T03:07:34.939Z,8.30
2018-04-29T03:10:04.005Z,8.30
2018-04-29T03:12:33.077Z,7.73
2018-04-29T03:15:02.164Z,8.87
2018-04-29T03:17:31.954Z,8.60
2018-04-29T03:20:01.012Z,8.63
2018-04-29T03:22:30.045Z,8.97
2018-04-29T03:24:59.117Z,8.60
2018-04-29T03:27:28.950Z,9.17
2018-04-29T03:29:57.988Z,8.63
2018-04-29T03:32:27.070Z,7.93
2018-04-29T03:34:56.109Z,8.87
2018-04-29T03:37:25.944Z,8.80
2018-04-29T03:39:54.982Z,9.33
2018-04-29T03:42:24.069Z,9.50
2018-04-29T03:44:53.134Z,8.50
2018-04-29T03:47:22.179Z,9.77
2018-04-29T03:49:51.273Z,9.00
2018-04-29T03:52:20.349Z,9.13
2018-04-29T03:54:49.433Z,9.20
2018-04-29T03:57:36.225Z,8.73
2018-04-29T04:00:17.143Z,8.93
2018-04-29T04:03:04.316Z,8.57
2018-04-29T04:05:33.386Z,9.77
2018-04-29T04:08:03.208Z,8.73
2018-04-29T04:10:32.261Z,8.77
2018-04-29T04:13:01.341Z,18.07
2018-04-29T04:15:30.402Z,20.60
2018-04-29T04:17:59.492Z,37.30
2018-04-29T04:20:28.541Z,30.20
2018-04-29T04:22:57.589Z,27.10
2018-04-29T04:25:26.666Z,19.57
2018-04-29T04:27:55.748Z,10.73
2018-04-29T04:30:25.561Z,9.00
2018-04-29T04:32:55.394Z,9.70
2018-04-29T04:35:24.471Z,10.50
2018-04-29T04:37:54.329Z,10.40
2018-04-29T04:40:23.366Z,11.23
2018-04-29T04:42:53.209Z,11.80
2018-04-29T04:45:22.294Z,9.80
2018-04-29T04:47:51.351Z,10.40
2018-04-29T04:50:20.437Z,9.90
2018-04-29T04:52:50.310Z,8.57
2018-04-29T04:55:19.361Z,9.07
2018-04-29T04:57:48.429Z,9.03
2018-04-29T05:00:17.504Z,9.20
2018-04-29T05:02:46.548Z,10.10
2018-04-29T05:05:15.625Z,9.67
2018-04-29T05:07:44.698Z,8.83
2018-04-29T05:10:13.745Z,9.23
2018-04-29T05:12:43.582Z,10.03
2018-04-29T05:15:12.633Z,12.03
2018-04-29T05:17:41.724Z,10.77
2018-04-29T05:20:10.771Z,10.00
2018-04-29T05:22:39.839Z,9.30
2018-04-29T05:25:09.653Z,10.20
2018-04-29T05:27:38.709Z,10.17
2018-04-29T05:30:07.769Z,9.70
2018-04-29T05:32:36.867Z,8.83
2018-04-29T05:35:05.934Z,14.20
2018-04-29T05:37:35.759Z,11.77
2018-04-29T05:40:04.834Z,14.57
2018-04-29T05:42:34.649Z,12.77
2018-04-29T05:45:04.526Z,11.20
2018-04-29T05:47:34.341Z,13.00
2018-04-29T05:50:03.416Z,13.67
2018-04-29T05:52:32.506Z,13.50
2018-04-29T05:55:01.551Z,12.43
2018-04-29T05:57:31.405Z,11.43
2018-04-29T06:00:00.451Z,10.43
2018-04-29T06:02:29.489Z,12.60
2018-04-29T06:04:58.577Z,12.00
2018-04-29T06:07:27.625Z,14.60
2018-04-29T06:09:56.710Z,10.87
2018-04-29T06:12:25.788Z,9.97
2018-04-29T06:14:54.831Z,8.43
2018-04-29T06:17:24.681Z,9.53
2018-04-29T06:19:54.590Z,10.30
2018-04-29T06:22:23.640Z,10.87
2018-04-29T06:24:52.741Z,9.90
2018-04-29T06:27:21.807Z,9.50
2018-04-29T06:29:51.005Z,10.43
2018-04-29T06:32:20.038Z,8.30
2018-04-29T06:34:49.840Z,10.73
2018-04-29T06:37:19.692Z,13.60
2018-04-29T06:39:48.732Z,14.80
2018-04-29T06:42:17.805Z,21.17
2018-04-29T06:44:47.026Z,57.80
2018-04-29T06:47:16.081Z,18.07
2018-04-29T06:49:45.178Z,13.40
2018-04-29T06:52:14.255Z,19.05
2018-04-29T06:54:43.304Z,20.00
2018-04-29T06:57:12.355Z,9.93
2018-04-29T06:59:41.475Z,9.70
2018-04-29T07:02:10.523Z,23.13
2018-04-29T07:04:39.572Z,17.47
2018-04-29T07:07:08.655Z,14.63
2018-04-29T07:09:37.693Z,18.97
2018-04-29T07:12:07.504Z,11.93
2018-04-29T07:14:36.585Z,11.10
2018-04-29T07:17:06.393Z,10.97
2018-04-29T07:19:36.229Z,10.70
2018-04-29T07:22:05.301Z,10.50
2018-04-29T07:24:34.371Z,10.07
2018-04-29T07:27:03.435Z,40.20
2018-04-29T07:29:32.620Z,33.17
2018-04-29T07:32:01.672Z,16.37
2018-04-29T07:34:31.505Z,11.40
2018-04-29T07:37:00.546Z,9.70
2018-04-29T07:39:29.623Z,9.90
2018-04-29T07:41:58.653Z,9.87
2018-04-29T07:44:27.741Z,9.90
2018-04-29T07:46:56.796Z,10.50
2018-04-29T07:49:25.853Z,10.93
2018-04-29T07:51:55.693Z,12.10
2018-04-29T07:54:24.749Z,10.17
2018-04-29T07:56:53.841Z,10.73
2018-04-29T07:59:22.937Z,11.40
2018-04-29T08:01:52.011Z,11.37
2018-04-29T08:04:21.130Z,10.70
2018-04-29T08:06:50.984Z,10.80
2018-04-29T08:09:20.779Z,10.67
2018-04-29T08:11:49.941Z,9.80
2018-04-29T08:14:18.983Z,10.87
2018-04-29T08:16:48.064Z,11.37
2018-04-29T08:19:17.860Z,9.70
2018-04-29T08:21:47.704Z,11.10
2018-04-29T08:24:16.845Z,10.77
2018-04-29T08:26:45.873Z,10.10
2018-04-29T08:29:14.970Z,11.10
2018-04-29T08:31:44.026Z,11.10
2018-04-29T08:34:13.125Z,10.63
2018-04-29T08:36:42.191Z,10.80
2018-04-29T08:39:11.248Z,11.93
2018-04-29T08:41:40.321Z,11.50
2018-04-29T08:44:09.380Z,11.10
2018-04-29T08:46:38.460Z,11.30
2018-04-29T08:49:07.510Z,12.00
2018-04-29T08:51:37.362Z,11.67
2018-04-29T08:54:06.430Z,11.20
2018-04-29T08:56:36.274Z,12.63
2018-04-29T08:59:05.325Z,11.77
2018-04-29T09:01:35.171Z,11.30
2018-04-29T09:04:04.223Z,11.90
2018-04-29T09:06:33.309Z,11.10
2018-04-29T09:09:02.384Z,11.03
2018-04-29T09:11:31.477Z,11.40
2018-04-29T09:14:00.582Z,10.63
2018-04-29T09:16:29.627Z,10.77
2018-04-29T09:18:58.781Z,10.37
2018-04-29T09:21:27.821Z,11.60
2018-04-29T09:23:56.876Z,11.50
2018-04-29T09:26:25.976Z,11.40
2018-04-29T09:28:55.042Z,11.20
2018-04-29T09:31:24.096Z,11.60
2018-04-29T09:33:53.930Z,13.00
2018-04-29T09:36:22.981Z,11.67
2018-04-29T09:38:52.813Z,8.63
2018-04-29T09:41:21.888Z,9.47
2018-04-29T09:43:51.729Z,9.60
2018-04-29T09:46:20.777Z,9.43
2018-04-29T09:48:49.910Z,9.10
2018-04-29T09:51:19.685Z,9.10
2018-04-29T09:53:48.769Z,9.77
2018-04-29T09:56:17.809Z,10.30
2018-04-29T09:58:46.917Z,11.03
2018-04-29T10:01:17.834Z,26.47
2018-04-29T10:03:47.716Z,43.17
2018-04-29T10:06:16.829Z,10.30
2018-04-29T10:08:45.915Z,10.10
2018-04-29T10:11:14.976Z,8.40
2018-04-29T10:13:44.070Z,9.90
2018-04-29T10:16:13.114Z,9.40
2018-04-29T10:18:43.041Z,10.97
2018-04-29T10:21:12.059Z,9.90
2018-04-29T10:23:41.196Z,10.03
2018-04-29T10:26:10.245Z,10.20
2018-04-29T10:28:39.285Z,10.07
2018-04-29T10:31:08.408Z,10.03
2018-04-29T10:33:37.466Z,10.90
2018-04-29T10:36:07.289Z,10.63
2018-04-29T10:38:36.361Z,9.40
2018-04-29T10:41:05.447Z,10.23
2018-04-29T10:43:34.607Z,16.57
2018-04-29T10:46:04.457Z,23.57
2018-04-29T10:48:33.498Z,9.77
2018-04-29T10:51:03.331Z,9.27
2018-04-29T10:53:32.391Z,9.03
2018-04-29T10:56:01.467Z,9.13
2018-04-29T10:58:30.509Z,9.20
2018-04-29T11:01:00.345Z,8.80
2018-04-29T11:03:29.392Z,8.73
2018-04-29T11:05:58.473Z,10.30
2018-04-29T11:08:27.515Z,12.23
2018-04-29T11:10:56.601Z,10.70
2018-04-29T11:13:25.654Z,11.27
2018-04-29T11:15:54.744Z,10.20
2018-04-29T11:18:23.794Z,10.80
2018-04-29T11:20:52.857Z,11.03
2018-04-29T11:23:21.941Z,11.30
2018-04-29T11:25:50.997Z,11.40
2018-04-29T11:28:20.055Z,12.13
2018-04-29T11:30:49.920Z,12.60
2018-04-29T11:33:19.127Z,12.00
2018-04-29T11:35:49.962Z,12.77
2018-04-29T11:38:19.008Z,11.80
2018-04-29T11:40:48.086Z,13.80
2018-04-29T11:43:17.918Z,12.83
2018-04-29T11:45:46.970Z,12.77
2018-04-29T11:48:16.069Z,12.97
2018-04-29T11:50:45.144Z,13.17
2018-04-29T11:53:14.216Z,13.03
2018-04-29T11:55:43.296Z,12.90
2018-04-29T11:58:12.347Z,12.93
2018-04-29T12:00:41.466Z,12.80
2018-04-29T12:03:11.306Z,12.70
2018-04-29T12:05:40.357Z,12.93
2018-04-29T12:08:09.445Z,13.23
2018-04-29T12:10:38.497Z,13.50
2018-04-29T12:13:07.569Z,14.67
2018-04-29T12:15:36.626Z,14.00
2018-04-29T12:18:05.735Z,15.43
2018-04-29T12:20:34.768Z,15.23
2018-04-29T12:23:03.810Z,14.50
2018-04-29T12:25:32.922Z,15.20
2018-04-29T12:28:02.790Z,14.70
2018-04-29T12:30:32.014Z,14.73
2018-04-29T12:33:01.069Z,16.07
2018-04-29T12:35:30.182Z,15.40
2018-04-29T12:37:59.240Z,15.73
2018-04-29T12:40:28.935Z,16.10
2018-04-29T12:42:58.774Z,27.57
2018-04-29T12:45:27.867Z,19.40
2018-04-29T12:47:57.024Z,16.17
2018-04-29T12:50:27.289Z,15.70
2018-04-29T12:52:56.389Z,16.93
2018-04-29T12:55:27.348Z,16.10
2018-04-29T12:57:57.272Z,16.57
2018-04-29T13:00:26.441Z,16.53
2018-04-29T13:02:55.531Z,15.30
2018-04-29T13:05:24.638Z,15.50
2018-04-29T13:07:53.733Z,16.73
2018-04-29T13:10:22.857Z,16.27
2018-04-29T13:12:53.360Z,17.70
2018-04-29T13:15:23.612Z,17.63
2018-04-29T13:17:52.691Z,18.93
2018-04-29T13:20:21.738Z,18.50
2018-04-29T13:22:50.825Z,16.73
2018-04-29T13:25:20.704Z,17.00
2018-04-29T13:27:49.895Z,16.77
2018-04-29T13:30:18.981Z,17.40
2018-04-29T13:32:48.033Z,18.13
2018-04-29T13:35:17.884Z,17.60
2018-04-29T13:37:47.106Z,18.50
2018-04-29T13:40:16.252Z,17.03
2018-04-29T13:42:45.370Z,17.27
2018-04-29T13:45:17.046Z,18.70
2018-04-29T13:47:46.173Z,17.97
2018-04-29T13:50:16.472Z,16.80
2018-04-29T13:52:45.542Z,18.67
2018-04-29T13:55:14.652Z,17.80
2018-04-29T13:57:44.969Z,16.67
2018-04-29T14:00:17.462Z,18.13
2018-04-29T14:02:47.979Z,18.20
2018-04-29T14:05:17.056Z,17.93
2018-04-29T14:07:46.117Z,17.80
2018-04-29T14:10:15.247Z,18.47
2018-04-29T14:12:45.045Z,17.30
2018-04-29T14:15:14.084Z,18.40
2018-04-29T14:17:43.159Z,17.70
2018-04-29T14:20:12.289Z,18.47
2018-04-29T14:22:42.069Z,17.93
2018-04-29T14:25:11.172Z,17.43
2018-04-29T14:27:40.247Z,17.17
2018-04-29T14:30:09.318Z,19.50
2018-04-29T14:32:38.434Z,17.87
2018-04-29T14:35:07.520Z,17.50
2018-04-29T14:37:36.582Z,18.73
2018-04-29T14:40:05.675Z,18.53
2018-04-29T14:42:34.868Z,18.00
2018-04-29T14:45:04.720Z,17.87
2018-04-29T14:47:33.810Z,17.27
2018-04-29T14:50:02.869Z,17.00
2018-04-29T14:52:32.722Z,17.00
2018-04-29T14:55:02.431Z,17.37
2018-04-29T14:57:31.504Z,17.77
2018-04-29T15:00:01.368Z,17.47
2018-04-29T15:02:30.461Z,16.73
2018-04-29T15:04:59.576Z,17.70
2018-04-29T15:07:28.658Z,17.53
2018-04-29T15:09:57.713Z,16.73
2018-04-29T15:12:26.795Z,18.43
2018-04-29T15:14:55.886Z,16.33
2018-04-29T15:17:25.762Z,16.80
2018-04-29T15:19:54.891Z,15.40
2018-04-29T15:22:24.741Z,16.70
2018-04-29T15:24:54.349Z,16.30
2018-04-29T15:27:23.435Z,16.87
2018-04-29T15:29:53.028Z,15.87
2018-04-29T15:32:22.893Z,15.60
2018-04-29T15:34:52.011Z,16.10
2018-04-29T15:37:21.086Z,16.37
2018-04-29T15:39:50.125Z,16.33
2018-04-29T15:42:19.399Z,15.83
2018-04-29T15:44:48.453Z,14.60
2018-04-29T15:47:17.522Z,16.60
2018-04-29T15:49:46.694Z,13.57
2018-04-29T15:52:16.545Z,15.33
2018-04-29T15:54:46.470Z,20.27
2018-04-29T15:57:15.537Z,15.70
2018-04-29T15:59:45.361Z,17.77
2018-04-29T16:02:14.532Z,15.23
2018-04-29T16:04:43.702Z,15.33
2018-04-29T16:07:13.023Z,15.63
2018-04-29T16:09:42.981Z,14.40
2018-04-29T16:12:12.237Z,13.83
2018-04-29T16:14:44.584Z,15.20
2018-04-29T16:17:13.743Z,14.57
2018-04-29T16:19:42.921Z,13.17
2018-04-29T16:22:12.006Z,13.93
2018-04-29T16:24:41.814Z,15.93
2018-04-29T16:27:11.006Z,14.63
2018-04-29T16:29:40.881Z,14.00
2018-04-29T16:32:09.981Z,14.27
2018-04-29T16:34:39.103Z,13.03
2018-04-29T16:37:09.434Z,13.13
2018-04-29T16:39:39.246Z,29.50
2018-04-29T16:42:10.265Z,15.60
2018-04-29T16:44:39.355Z,16.40
2018-04-29T16:47:08.407Z,14.03
2018-04-29T16:49:37.568Z,13.87
2018-04-29T16:52:07.385Z,14.33
2018-04-29T16:54:36.439Z,13.77
2018-04-29T16:57:05.548Z,16.07
2018-04-29T16:59:34.630Z,14.73
2018-04-29T17:02:03.747Z,15.27
2018-04-29T17:04:33.481Z,13.63
2018-04-29T17:07:03.910Z,14.37
2018-04-29T17:09:33.849Z,15.20
2018-04-29T17:12:02.802Z,15.40
2018-04-29T17:14:32.642Z,23.20
2018-04-29T17:17:01.703Z,33.40
2018-04-29T17:19:30.784Z,28.17
2018-04-29T17:22:00.053Z,14.83
2018-04-29T17:24:29.131Z,14.30
2018-04-29T17:26:59.129Z,13.53
2018-04-29T17:29:29.964Z,14.33
2018-04-29T17:31:58.940Z,14.00
2018-04-29T17:34:28.255Z,13.73
2018-04-29T17:36:58.081Z,13.70
2018-04-29T17:39:27.173Z,24.23
2018-04-29T17:41:56.287Z,18.20
2018-04-29T17:44:25.333Z,16.60
2018-04-29T17:46:54.411Z,17.00
2018-04-29T17:49:23.738Z,22.03
2018-04-29T17:51:53.598Z,15.00
2018-04-29T17:54:22.746Z,14.47
2018-04-29T17:56:52.595Z,13.57
2018-04-29T17:59:21.690Z,14.40
2018-04-29T18:01:50.749Z,17.30
2018-04-29T18:04:20.605Z,15.20
2018-04-29T18:06:50.928Z,16.27
2018-04-29T18:09:20.013Z,15.17
2018-04-29T18:11:49.093Z,14.43
2018-04-29T18:14:18.955Z,16.40
2018-04-29T18:16:48.105Z,18.67
2018-04-29T18:19:17.397Z,16.97
2018-04-29T18:21:47.242Z,17.50
2018-04-29T18:24:16.320Z,16.03
2018-04-29T18:26:45.374Z,16.53
2018-04-29T18:29:14.461Z,17.77
2018-04-29T18:31:43.533Z,17.80
2018-04-29T18:34:12.586Z,20.57
2018-04-29T18:36:42.421Z,18.63
2018-04-29T18:39:11.518Z,19.27
2018-04-29T18:41:40.634Z,17.80
2018-04-29T18:44:10.485Z,19.43
2018-04-29T18:46:40.336Z,19.13
2018-04-29T18:49:09.519Z,18.17
2018-04-29T18:51:38.622Z,18.10
2018-04-29T18:54:07.711Z,19.97
2018-04-29T18:56:36.796Z,19.00
2018-04-29T18:59:05.857Z,18.30
2018-04-29T19:01:34.900Z,18.77
2018-04-29T19:04:04.031Z,16.97
2018-04-29T19:06:33.089Z,18.90
2018-04-29T19:09:02.162Z,17.23
2018-04-29T19:11:32.015Z,18.47
2018-04-29T19:14:01.131Z,17.37
2018-04-29T19:16:30.892Z,19.00
2018-04-29T19:19:00.020Z,19.33
2018-04-29T19:21:29.080Z,19.13
2018-04-29T19:23:59.018Z,17.73
2018-04-29T19:26:27.986Z,20.70
2018-04-29T19:28:57.816Z,19.30
2018-04-29T19:31:26.916Z,18.67
2018-04-29T19:33:55.977Z,19.70
2018-04-29T19:36:25.050Z,18.20
2018-04-29T19:38:54.187Z,19.33
2018-04-29T19:41:23.243Z,19.87
2018-04-29T19:43:52.377Z,19.03
2018-04-29T19:46:21.373Z,19.13
2018-04-29T19:48:50.432Z,19.40
2018-04-29T19:51:19.486Z,18.00
2018-04-29T19:53:48.556Z,19.03
2018-04-29T19:56:17.853Z,17.03
2018-04-29T19:58:46.907Z,17.60
2018-04-29T20:01:16.034Z,18.10
2018-04-29T20:03:45.892Z,17.13
2018-04-29T20:06:14.942Z,20.40
2018-04-29T20:08:44.823Z,18.10
2018-04-29T20:11:13.903Z,19.30
2018-04-29T20:13:42.962Z,18.80
2018-04-29T20:16:12.145Z,18.40
2018-04-29T20:18:41.957Z,18.13
2018-04-29T20:21:11.776Z,17.23
2018-04-29T20:23:40.830Z,18.30
2018-04-29T20:26:09.992Z,17.33
2018-04-29T20:28:39.104Z,17.60
2018-04-29T20:31:08.157Z,17.70
2018-04-29T20:33:37.993Z,16.77
2018-04-29T20:36:07.057Z,17.60
2018-04-29T20:38:36.860Z,18.03
2018-04-29T20:41:08.096Z,17.67
2018-04-29T20:43:37.944Z,18.17
2018-04-29T20:46:07.817Z,17.10
2018-04-29T20:48:36.897Z,16.93
2018-04-29T20:51:06.480Z,18.07
2018-04-29T20:53:35.568Z,18.63
2018-04-29T20:56:04.653Z,17.50
2018-04-29T20:58:33.702Z,18.30
2018-04-29T21:01:02.790Z,17.30
2018-04-29T21:03:31.844Z,18.67
2018-04-29T21:06:00.959Z,17.80
2018-04-29T21:08:29.997Z,16.93
2018-04-29T21:10:59.812Z,16.70
2018-04-29T21:13:29.089Z,16.67
2018-04-29T21:15:58.154Z,18.20
2018-04-29T21:18:27.235Z,18.83
2018-04-29T21:20:56.309Z,16.73
2018-04-29T21:23:25.364Z,19.50
2018-04-29T21:25:54.472Z,17.50
2018-04-29T21:28:23.540Z,19.00
2018-04-29T21:30:52.581Z,18.60
2018-04-29T21:33:22.468Z,17.17
2018-04-29T21:35:51.547Z,18.60
2018-04-29T21:38:20.592Z,16.90
2018-04-29T21:40:50.652Z,17.80
2018-04-29T21:43:19.733Z,17.73
2018-04-29T21:45:48.781Z,16.80
2018-04-29T21:48:18.640Z,18.43
2018-04-29T21:50:48.371Z,17.97
2018-04-29T21:53:17.445Z,17.30
2018-04-29T21:55:46.534Z,18.87
2018-04-29T21:58:15.588Z,18.83
2018-04-29T22:00:45.405Z,18.17
2018-04-29T22:03:15.253Z,17.90
2018-04-29T22:05:44.985Z,18.13
2018-04-29T22:08:14.133Z,18.20
2018-04-29T22:10:43.233Z,19.40
2018-04-29T22:13:13.065Z,16.97
2018-04-29T22:15:42.123Z,17.53
2018-04-29T22:18:11.972Z,17.63
2018-04-29T22:20:41.034Z,17.77
2018-04-29T22:23:10.913Z,18.77
2018-04-29T22:25:39.952Z,17.70
2018-04-29T22:28:09.015Z,17.23
2018-04-29T22:30:38.322Z,17.60
2018-04-29T22:33:08.960Z,19.57
2018-04-29T22:35:38.863Z,18.70
2018-04-29T22:38:07.889Z,18.87
2018-04-29T22:40:36.946Z,18.00
2018-04-29T22:43:06.025Z,17.00
2018-04-29T22:45:35.122Z,18.20
2018-04-29T22:48:04.157Z,18.00
2018-04-29T22:50:33.761Z,18.43
2018-04-29T22:53:03.350Z,19.20
2018-04-29T22:55:32.388Z,16.57
2018-04-29T22:58:01.474Z,17.57
2018-04-29T23:00:31.186Z,19.13
2018-04-29T23:03:00.262Z,17.37
2018-04-29T23:05:30.074Z,18.47
2018-04-29T23:07:59.153Z,17.93
2018-04-29T23:10:28.966Z,17.07
2018-04-29T23:12:58.827Z,18.20
2018-04-29T23:15:28.165Z,17.10
2018-04-29T23:17:57.193Z,18.67
2018-04-29T23:20:26.283Z,17.63
2018-04-29T23:22:56.106Z,18.30
2018-04-29T23:25:27.022Z,17.30
2018-04-29T23:27:56.888Z,17.30
2018-04-29T23:30:26.949Z,17.73
2018-04-29T23:32:56.796Z,18.77
2018-04-29T23:35:25.965Z,19.30
2018-04-29T23:37:54.953Z,16.90
2018-04-29T23:40:25.624Z,18.57
2018-04-29T23:42:54.707Z,19.17
2018-04-29T23:45:24.061Z,18.40
2018-04-29T23:47:53.127Z,18.20
2018-04-29T23:50:22.196Z,17.70
2018-04-29T23:52:51.626Z,18.30
2018-04-29T23:55:20.749Z,16.33
2018-04-29T23:57:49.817Z,19.47
